createdAt,value
2019-01-23T20:04:19.288Z,15.23
2019-01-23T20:10:23.524Z,13.85
2019-01-23T20:15:29.026Z,14.97
2019-01-23T20:20:34.631Z,15.43
2019-01-23T20:25:40.282Z,14.50
2019-01-23T20:46:48.119Z,16.23
2019-01-23T20:50:16.784Z,16.53
2019-01-23T20:52:22.206Z,15.20
2019-01-23T21:07:17.719Z,35.47
2019-01-23T21:09:23.146Z,36.17
2019-01-23T21:11:29.943Z,37.07
2019-01-23T21:15:07.345Z,36.10
2019-01-23T21:17:12.749Z,35.43
2019-01-23T21:19:18.231Z,36.87
2019-01-23T21:25:57.567Z,36.10
2019-01-23T21:31:04.196Z,37.40
2019-01-23T21:36:10.464Z,36.63
2019-01-23T21:41:16.756Z,36.60
2019-01-23T21:46:23.032Z,35.80
2019-01-23T21:51:29.341Z,34.85
2019-01-23T21:56:35.708Z,37.03
2019-01-23T22:01:42.003Z,36.40
2019-01-23T22:06:48.438Z,36.13
2019-01-23T22:11:54.715Z,37.57
2019-01-23T22:17:01.030Z,33.40
2019-01-23T22:22:08.107Z,37.70
2019-01-23T22:27:14.718Z,39.43
2019-01-23T22:32:21.147Z,38.87
2019-01-23T22:37:27.411Z,38.13
2019-01-23T22:42:33.760Z,38.10
2019-01-23T22:47:40.042Z,36.73
2019-01-23T22:52:46.525Z,39.20
2019-01-23T22:57:52.841Z,36.98
2019-01-23T23:02:59.111Z,36.20
2019-01-23T23:08:06.128Z,37.45
2019-01-23T23:13:12.568Z,37.50
2019-01-23T23:18:19.067Z,36.63
2019-01-23T23:23:25.652Z,36.83
2019-01-23T23:28:31.983Z,37.07
2019-01-23T23:33:38.384Z,36.10
2019-01-23T23:38:45.868Z,36.40
2019-01-23T23:43:52.140Z,36.63
2019-01-23T23:48:58.483Z,38.67
2019-01-23T23:54:06.225Z,36.53
2019-01-23T23:59:12.458Z,40.65
